Time;durP1;ratioP1;P1;durP2;ratioP2;P2;SDS_P1;SDS_P2;PMS_P1;PMS_P2;Temp;Humidity;BMP_temperature;BMP_pressure;BME280_temperature;BME280_humidity;BME280_pressure;Samples;Min_cycle;Max_cycle;Signal;HPM_P1;HPM_P2
2020/12/12 00:00:55;;;;;;;33.72;12.52;;;5.80;90.40;;;;;;5006766;28;20025;-57
2020/12/12 00:03:20;;;;;;;36.33;11.38;;;5.80;90.70;;;;;;5026059;28;20632;-57
2020/12/12 00:05:46;;;;;;;30.90;11.75;;;5.70;90.40;;;;;;4992414;28;20625;-56
2020/12/12 00:08:11;;;;;;;34.95;11.88;;;5.70;90.40;;;;;;5015370;28;20033;-58
2020/12/12 00:10:37;;;;;;;29.70;11.70;;;5.70;90.50;;;;;;5008508;28;20050;-57
2020/12/12 00:13:02;;;;;;;27.52;11.07;;;5.70;90.50;;;;;;5015984;28;20037;-58
2020/12/12 00:15:28;;;;;;;41.10;11.55;;;5.70;90.50;;;;;;5014559;28;20501;-56
2020/12/12 00:17:54;;;;;;;35.15;11.23;;;5.70;90.50;;;;;;5010729;28;20034;-58
2020/12/12 00:20:19;;;;;;;31.60;11.18;;;5.70;90.50;;;;;;5012692;28;20131;-57
2020/12/12 00:22:45;;;;;;;29.20;10.55;;;5.70;90.50;;;;;;5029676;28;20092;-57
2020/12/12 00:25:11;;;;;;;24.17;10.75;;;5.70;90.50;;;;;;5005668;28;20017;-57
2020/12/12 00:27:36;;;;;;;33.80;10.32;;;5.70;90.50;;;;;;5006559;28;20482;-57
2020/12/12 00:30:03;;;;;;;27.00;10.70;;;5.70;90.50;;;;;;5015770;28;20034;-57
2020/12/12 00:32:28;;;;;;;31.27;11.20;;;5.70;90.50;;;;;;5016805;28;20021;-58
2020/12/12 00:34:54;;;;;;;33.47;11.65;;;5.70;90.50;;;;;;5009251;28;20508;-57
2020/12/12 00:37:20;;;;;;;37.95;11.52;;;5.70;90.50;;;;;;5015510;28;20049;-58
2020/12/12 00:39:46;;;;;;;27.67;11.35;;;5.70;90.50;;;;;;5010512;28;20049;-58
2020/12/12 00:42:12;;;;;;;22.27;10.13;;;5.70;90.50;;;;;;5016197;28;20473;-58
2020/12/12 00:44:37;;;;;;;30.20;11.90;;;5.60;90.50;;;;;;5015595;28;20045;-57
2020/12/12 00:47:04;;;;;;;25.50;10.07;;;5.60;90.50;;;;;;5009548;28;20026;-57
2020/12/12 00:49:30;;;;;;;31.98;11.43;;;5.60;90.50;;;;;;5007187;28;20121;-57
2020/12/12 00:51:55;;;;;;;23.75;10.93;;;5.60;90.50;;;;;;5011521;28;20436;-57
2020/12/12 00:54:21;;;;;;;26.60;10.25;;;5.60;90.50;;;;;;5010355;28;20053;-56
2020/12/12 00:56:46;;;;;;;25.13;9.52;;;5.60;90.50;;;;;;5005283;28;20500;-58
2020/12/12 00:59:12;;;;;;;25.30;11.02;;;5.60;90.50;;;;;;5008327;28;20496;-58
2020/12/12 01:01:37;;;;;;;27.98;11.10;;;5.60;90.50;;;;;;5006468;28;20046;-56
2020/12/12 01:04:03;;;;;;;27.77;10.80;;;5.60;90.50;;;;;;5008359;28;20024;-56
2020/12/12 01:06:28;;;;;;;25.00;10.55;;;5.60;90.50;;;;;;5016376;28;20060;-56
2020/12/12 01:08:54;;;;;;;25.10;9.98;;;5.60;90.50;;;;;;5007607;28;20030;-58
2020/12/12 01:11:19;;;;;;;19.83;9.82;;;5.60;90.50;;;;;;5026921;28;20033;-57
2020/12/12 01:13:45;;;;;;;31.02;10.77;;;5.60;90.60;;;;;;5010820;28;20109;-57
2020/12/12 01:16:14;;;;;;;18.40;9.57;;;5.50;90.50;;;;;;5007079;28;20237;-57
2020/12/12 01:18:40;;;;;;;24.65;10.60;;;5.60;90.60;;;;;;4999600;28;20505;-56
2020/12/12 01:21:06;;;;;;;21.67;10.38;;;5.60;90.60;;;;;;4992189;28;20397;-57
2020/12/12 01:23:32;;;;;;;23.83;10.50;;;5.60;90.60;;;;;;5017163;28;20109;-57
2020/12/12 01:25:57;;;;;;;22.45;10.25;;;5.60;90.60;;;;;;4989002;28;20042;-58
2020/12/12 01:28:23;;;;;;;20.88;10.00;;;5.50;90.60;;;;;;5009655;28;20041;-56
2020/12/12 01:30:50;;;;;;;29.50;9.73;;;5.60;90.60;;;;;;4992961;28;20033;-57
2020/12/12 01:33:15;;;;;;;22.77;9.85;;;5.50;90.60;;;;;;5009036;28;20462;-57
2020/12/12 01:35:42;;;;;;;22.45;9.52;;;5.50;90.60;;;;;;5008373;28;20120;-56
2020/12/12 01:38:07;;;;;;;22.48;10.15;;;5.60;90.60;;;;;;5007588;28;20022;-58
2020/12/12 01:40:33;;;;;;;16.10;9.05;;;5.60;90.70;;;;;;5025327;28;20030;-57
2020/12/12 01:42:58;;;;;;;21.48;9.25;;;5.50;90.60;;;;;;4990238;28;20094;-57
2020/12/12 01:45:24;;;;;;;21.33;9.70;;;5.60;90.70;;;;;;5006146;28;20034;-57
2020/12/12 01:47:49;;;;;;;22.48;9.15;;;5.50;90.60;;;;;;5015672;28;20026;-57
2020/12/12 01:50:15;;;;;;;23.35;9.45;;;5.50;90.60;;;;;;4991176;28;20481;-57
2020/12/12 01:52:40;;;;;;;22.33;8.95;;;5.50;90.70;;;;;;4991124;28;20068;-58
2020/12/12 01:55:06;;;;;;;16.80;8.98;;;5.50;90.70;;;;;;5005635;28;20214;-56
2020/12/12 01:57:31;;;;;;;19.25;8.88;;;5.50;90.70;;;;;;5009152;28;20030;-57
2020/12/12 01:59:57;;;;;;;21.60;9.23;;;5.50;90.70;;;;;;5009834;28;20044;-57
2020/12/12 02:02:22;;;;;;;23.45;9.93;;;5.50;90.70;;;;;;5011719;28;20034;-58
2020/12/12 02:04:54;;;;;;;19.08;9.43;;;5.50;90.70;;;;;;5007030;28;20049;-57
2020/12/12 02:07:21;;;;;;;19.77;9.98;;;5.50;90.70;;;;;;5021629;28;20038;-58
2020/12/12 02:09:47;;;;;;;21.70;9.55;;;5.50;90.70;;;;;;4994838;28;20481;-58
2020/12/12 02:12:13;;;;;;;21.85;9.18;;;5.50;90.70;;;;;;5006639;28;20029;-57
2020/12/12 02:14:38;;;;;;;26.13;9.63;;;5.50;90.80;;;;;;5013398;28;20034;-58
2020/12/12 02:17:05;;;;;;;19.38;9.35;;;5.50;90.80;;;;;;4991079;28;20033;-57
2020/12/12 02:19:30;;;;;;;18.27;9.18;;;5.50;90.80;;;;;;4990148;28;20125;-57
2020/12/12 02:21:57;;;;;;;18.15;8.45;;;5.50;90.80;;;;;;5006504;28;20101;-58
2020/12/12 02:24:25;;;;;;;20.30;9.82;;;5.50;90.80;;;;;;5013817;28;20033;-57
2020/12/12 02:26:51;;;;;;;16.13;9.38;;;5.50;90.80;;;;;;5023216;28;20460;-57
2020/12/12 02:29:17;;;;;;;21.55;8.95;;;5.50;90.80;;;;;;5010289;28;21041;-57
2020/12/12 02:31:43;;;;;;;16.50;9.18;;;5.60;90.80;;;;;;5007171;28;20077;-57
2020/12/12 02:34:09;;;;;;;18.33;8.98;;;5.50;90.80;;;;;;4994203;28;20238;-57
2020/12/12 02:36:43;;;;;;;16.65;8.45;;;5.50;90.80;;;;;;5007785;28;20133;-57
2020/12/12 02:39:13;;;;;;;21.10;10.00;;;5.50;90.80;;;;;;4991508;28;20498;-57
2020/12/12 02:41:38;;;;;;;20.98;9.15;;;5.40;90.80;;;;;;5022973;28;20329;-56
2020/12/12 02:44:04;;;;;;;21.40;9.57;;;5.50;90.80;;;;;;5007833;28;20122;-56
2020/12/12 02:46:29;;;;;;;21.05;8.85;;;5.50;90.80;;;;;;5013116;28;20038;-58
2020/12/12 02:48:55;;;;;;;15.05;8.27;;;5.50;90.80;;;;;;5007267;28;20101;-58
2020/12/12 02:51:21;;;;;;;16.17;9.02;;;5.50;90.80;;;;;;4991151;28;20029;-56
2020/12/12 02:53:46;;;;;;;19.83;9.45;;;5.50;90.90;;;;;;5009646;28;20396;-57
2020/12/12 02:56:15;;;;;;;23.80;9.98;;;5.50;90.80;;;;;;5009354;28;20257;-58
2020/12/12 02:58:41;;;;;;;23.33;11.70;;;5.50;90.90;;;;;;5012969;28;20528;-57
2020/12/12 03:01:06;;;;;;;26.63;11.77;;;5.50;90.90;;;;;;5012544;28;20050;-56
2020/12/12 03:03:32;;;;;;;22.15;10.48;;;5.50;90.90;;;;;;5011231;28;20096;-58
2020/12/12 03:05:57;;;;;;;20.17;10.55;;;5.50;90.90;;;;;;5006641;28;20485;-57
2020/12/12 03:08:23;;;;;;;23.17;11.55;;;5.50;90.90;;;;;;5012858;28;20053;-57
2020/12/12 03:10:48;;;;;;;24.60;11.40;;;5.50;90.90;;;;;;5014558;28;20536;-58
2020/12/12 03:13:14;;;;;;;19.48;10.95;;;5.50;90.90;;;;;;5011349;28;20049;-57
2020/12/12 03:15:39;;;;;;;25.92;12.15;;;5.50;90.90;;;;;;5009865;28;20030;-58
2020/12/12 03:18:05;;;;;;;20.23;10.52;;;5.50;90.90;;;;;;5020161;28;20038;-57
2020/12/12 03:20:30;;;;;;;21.77;11.00;;;5.50;90.90;;;;;;5007857;28;20026;-56
2020/12/12 03:22:56;;;;;;;23.13;10.02;;;5.50;90.90;;;;;;5019305;28;20032;-57
2020/12/12 03:25:21;;;;;;;18.85;10.45;;;5.50;90.90;;;;;;5011371;28;20037;-56
2020/12/12 03:27:47;;;;;;;19.13;10.10;;;5.50;90.90;;;;;;5005604;28;20037;-57
2020/12/12 03:30:12;;;;;;;24.17;11.18;;;5.50;90.90;;;;;;5012657;28;20409;-56
2020/12/12 03:32:38;;;;;;;23.88;11.55;;;5.50;90.90;;;;;;5013063;28;20033;-56
2020/12/12 03:35:03;;;;;;;17.95;10.40;;;5.50;90.90;;;;;;5009035;28;20048;-56
2020/12/12 03:37:29;;;;;;;18.40;10.15;;;5.50;90.90;;;;;;5011789;28;20075;-58
2020/12/12 03:39:54;;;;;;;17.20;9.88;;;5.50;90.90;;;;;;5013198;28;20685;-56
2020/12/12 03:42:20;;;;;;;24.85;10.27;;;5.50;90.90;;;;;;5008561;28;20030;-56
2020/12/12 03:44:45;;;;;;;21.70;10.95;;;5.50;90.90;;;;;;5025145;28;20034;-58
2020/12/12 03:47:11;;;;;;;23.10;10.15;;;5.50;90.90;;;;;;5013663;28;20135;-57
2020/12/12 03:49:37;;;;;;;21.75;10.40;;;5.50;90.90;;;;;;4997156;28;20117;-56
2020/12/12 03:52:02;;;;;;;21.33;10.68;;;5.50;90.90;;;;;;5015495;28;20112;-57
2020/12/12 03:54:28;;;;;;;21.73;11.00;;;5.50;90.90;;;;;;5008512;28;20089;-57
2020/12/12 03:56:54;;;;;;;19.10;10.55;;;5.50;90.90;;;;;;5008660;28;20524;-57
2020/12/12 03:59:20;;;;;;;19.70;10.43;;;5.50;90.90;;;;;;5006967;28;20029;-57
2020/12/12 04:01:45;;;;;;;22.17;9.98;;;5.50;90.90;;;;;;5008321;28;20036;-58
2020/12/12 04:04:11;;;;;;;22.50;10.48;;;5.50;91.00;;;;;;5008023;28;20034;-57
2020/12/12 04:06:36;;;;;;;15.95;9.32;;;5.50;91.00;;;;;;4989143;28;20050;-56
2020/12/12 04:09:02;;;;;;;17.42;10.45;;;5.50;91.00;;;;;;5015139;28;20061;-57
2020/12/12 04:11:27;;;;;;;21.63;10.43;;;5.50;91.00;;;;;;5008631;28;20109;-58
2020/12/12 04:13:53;;;;;;;16.77;9.65;;;5.50;91.00;;;;;;4991821;28;20074;-56
2020/12/12 04:16:18;;;;;;;18.60;9.68;;;5.60;91.00;;;;;;5022468;28;20088;-57
2020/12/12 04:18:44;;;;;;;20.00;10.05;;;5.50;91.00;;;;;;5007653;28;20049;-57
2020/12/12 04:21:09;;;;;;;22.83;10.00;;;5.50;91.00;;;;;;5011159;28;20474;-56
2020/12/12 04:23:35;;;;;;;16.05;9.23;;;5.50;91.00;;;;;;5014278;28;20096;-57
2020/12/12 04:26:02;;;;;;;19.58;9.23;;;5.50;91.00;;;;;;4989217;28;20036;-56
2020/12/12 04:28:27;;;;;;;18.90;9.70;;;5.60;91.00;;;;;;5009526;28;20026;-58
2020/12/12 04:30:53;;;;;;;17.67;10.10;;;5.50;91.10;;;;;;5006861;28;20049;-58
2020/12/12 04:33:19;;;;;;;16.70;9.05;;;5.60;91.10;;;;;;5006558;28;20070;-57
2020/12/12 04:35:44;;;;;;;19.00;9.10;;;5.50;91.10;;;;;;5008002;28;20037;-58
2020/12/12 04:38:10;;;;;;;19.25;9.55;;;5.50;91.10;;;;;;5014519;28;20030;-56
2020/12/12 04:40:35;;;;;;;17.20;9.05;;;5.50;91.10;;;;;;5016930;28;20017;-58
2020/12/12 04:43:01;;;;;;;18.30;10.35;;;5.50;91.10;;;;;;5013123;28;20413;-57
2020/12/12 04:45:27;;;;;;;18.92;9.25;;;5.50;91.10;;;;;;5021033;28;20390;-57
2020/12/12 04:47:53;;;;;;;14.45;9.05;;;5.50;91.10;;;;;;5014529;28;20033;-57
2020/12/12 04:50:18;;;;;;;18.30;9.40;;;5.50;91.10;;;;;;4992019;28;20290;-57
2020/12/12 04:52:44;;;;;;;14.60;8.98;;;5.50;91.10;;;;;;5009975;28;20069;-57
2020/12/12 04:55:10;;;;;;;15.23;8.70;;;5.50;91.10;;;;;;5008850;28;20068;-57
2020/12/12 04:57:36;;;;;;;17.83;9.63;;;5.60;91.20;;;;;;5006214;28;20046;-57
2020/12/12 05:00:11;;;;;;;16.33;8.88;;;5.50;91.10;;;;;;5011895;28;20084;-57
2020/12/12 05:02:36;;;;;;;21.17;8.77;;;5.50;91.10;;;;;;5006896;28;20029;-57
2020/12/12 05:05:05;;;;;;;14.15;9.23;;;5.50;91.10;;;;;;5023472;28;20053;-57
2020/12/12 05:07:31;;;;;;;15.65;8.23;;;5.50;91.10;;;;;;5007403;28;20081;-57
2020/12/12 05:09:56;;;;;;;15.60;8.82;;;5.50;91.10;;;;;;5006899;28;20046;-56
2020/12/12 05:12:22;;;;;;;13.93;8.55;;;5.60;91.10;;;;;;5012848;28;20038;-56
2020/12/12 05:14:50;;;;;;;18.08;9.43;;;5.60;91.10;;;;;;5023598;28;20482;-57
2020/12/12 05:17:16;;;;;;;17.55;8.73;;;5.50;91.10;;;;;;5023575;28;20030;-57
2020/12/12 05:19:45;;;;;;;15.85;9.05;;;5.50;91.10;;;;;;5010727;28;20045;-57
2020/12/12 05:22:10;;;;;;;16.83;9.45;;;5.50;91.10;;;;;;5021898;28;20022;-57
2020/12/12 05:24:37;;;;;;;16.73;8.80;;;5.50;91.10;;;;;;5006872;28;20182;-57
2020/12/12 05:27:03;;;;;;;18.73;9.65;;;5.50;91.10;;;;;;5005781;28;20029;-57
2020/12/12 05:29:28;;;;;;;14.98;8.93;;;5.50;91.10;;;;;;5010578;28;20096;-56
2020/12/12 05:31:57;;;;;;;15.95;8.50;;;5.50;91.20;;;;;;5011370;28;20022;-57
2020/12/12 05:34:24;;;;;;;13.65;8.35;;;5.50;91.20;;;;;;5019302;28;20045;-58
2020/12/12 05:36:49;;;;;;;16.67;9.50;;;5.60;91.20;;;;;;5010477;28;20053;-57
2020/12/12 05:39:15;;;;;;;15.00;8.38;;;5.50;91.20;;;;;;5007460;28;20026;-57
2020/12/12 05:41:41;;;;;;;14.98;8.35;;;5.50;91.20;;;;;;5008008;28;20100;-56
2020/12/12 05:44:07;;;;;;;13.65;8.27;;;5.50;91.20;;;;;;4990102;28;20032;-57
2020/12/12 05:46:32;;;;;;;13.85;9.05;;;5.50;91.20;;;;;;5008130;28;20021;-57
2020/12/12 05:48:59;;;;;;;13.02;8.43;;;5.50;91.20;;;;;;5004172;28;20026;-56
2020/12/12 05:51:26;;;;;;;16.15;9.25;;;5.50;91.20;;;;;;5004823;28;20017;-57
2020/12/12 05:53:52;;;;;;;14.93;8.13;;;5.60;91.20;;;;;;4999347;28;20034;-57
2020/12/12 05:56:18;;;;;;;13.02;8.80;;;5.50;91.20;;;;;;5003488;28;20081;-57
2020/12/12 05:58:47;;;;;;;19.80;8.73;;;5.50;91.20;;;;;;5016013;28;20456;-56
2020/12/12 06:01:27;;;;;;;14.38;8.82;;;5.50;91.20;;;;;;4983989;28;20045;-58
2020/12/12 06:03:57;;;;;;;14.52;9.02;;;5.50;91.30;;;;;;5006439;28;20040;-57
2020/12/12 06:06:24;;;;;;;16.27;8.52;;;5.50;91.30;;;;;;5004155;28;20071;-57
2020/12/12 06:09:20;;;;;;;13.50;7.93;;;5.50;91.30;;;;;;5008605;28;20018;-57
2020/12/12 06:11:46;;;;;;;21.10;8.60;;;5.50;91.30;;;;;;5002313;28;20048;-57
2020/12/12 06:14:12;;;;;;;15.75;8.65;;;5.60;91.30;;;;;;5001009;28;20373;-57
2020/12/12 06:16:37;;;;;;;15.52;8.93;;;5.60;91.30;;;;;;5006013;28;20041;-56
2020/12/12 06:19:10;;;;;;;14.32;8.52;;;5.50;91.20;;;;;;4973047;28;20038;-57
2020/12/12 06:21:39;;;;;;;18.27;9.05;;;5.60;91.30;;;;;;5006536;28;20052;-56
2020/12/12 06:24:06;;;;;;;11.98;8.00;;;5.60;91.30;;;;;;4991914;28;20111;-56
2020/12/12 06:26:50;;;;;;;15.05;8.27;;;5.60;91.20;;;;;;5023326;28;20050;-57
2020/12/12 06:29:17;;;;;;;12.30;8.38;;;5.60;91.20;;;;;;5008011;28;20045;-56
2020/12/12 06:31:42;;;;;;;16.05;8.25;;;5.60;91.20;;;;;;4975264;28;20083;-57
2020/12/12 06:34:08;;;;;;;16.75;8.38;;;5.60;91.20;;;;;;5006170;28;20369;-56
2020/12/12 06:36:34;;;;;;;16.42;8.80;;;5.60;91.10;;;;;;5007599;28;20030;-56
2020/12/12 06:39:21;;;;;;;15.45;9.15;;;5.60;91.10;;;;;;5010839;28;20030;-56
2020/12/12 06:41:48;;;;;;;16.33;9.02;;;5.60;91.20;;;;;;5019249;28;20137;-57
2020/12/12 06:44:30;;;;;;;21.83;9.73;;;5.60;91.20;;;;;;5007115;28;20220;-56
2020/12/12 06:46:56;;;;;;;16.15;9.15;;;5.70;91.20;;;;;;4991198;28;20056;-57
2020/12/12 06:49:21;;;;;;;14.98;9.00;;;5.70;91.20;;;;;;5008932;28;20058;-56
2020/12/12 06:51:48;;;;;;;18.80;9.82;;;5.70;91.20;;;;;;4989697;28;20037;-57
2020/12/12 06:54:14;;;;;;;22.38;14.52;;;5.70;91.50;;;;;;4984790;28;20092;-56
2020/12/12 06:56:39;;;;;;;26.67;14.57;;;5.70;91.40;;;;;;5005282;28;20034;-56
2020/12/12 06:59:31;;;;;;;23.95;13.63;;;5.70;91.70;;;;;;5006228;28;20084;-57
2020/12/12 07:02:03;;;;;;;19.58;11.57;;;5.70;91.70;;;;;;5009934;28;20421;-56
2020/12/12 07:04:30;;;;;;;21.77;10.90;;;5.70;91.70;;;;;;5012521;28;20037;-57
2020/12/12 07:07:00;;;;;;;21.75;12.15;;;5.70;91.60;;;;;;5004844;28;20088;-56
2020/12/12 07:09:27;;;;;;;19.48;11.63;;;5.70;91.60;;;;;;5004826;28;20018;-57
2020/12/12 07:11:53;;;;;;;22.08;11.15;;;5.70;91.60;;;;;;5005904;28;20022;-56
2020/12/12 07:14:18;;;;;;;19.27;11.13;;;5.70;91.60;;;;;;4988829;28;20064;-56
2020/12/12 07:16:44;;;;;;;17.33;10.75;;;5.70;91.60;;;;;;4992355;28;20124;-57
2020/12/12 07:19:10;;;;;;;19.42;10.48;;;5.70;91.60;;;;;;5004117;28;20066;-56
2020/12/12 07:21:42;;;;;;;24.90;10.07;;;5.70;91.60;;;;;;5004193;28;20061;-56
2020/12/12 07:24:08;;;;;;;17.58;10.52;;;5.80;91.50;;;;;;4988156;28;20688;-57
2020/12/12 07:26:33;;;;;;;26.48;12.90;;;5.70;91.50;;;;;;5006242;28;20097;-56
2020/12/12 07:28:59;;;;;;;31.55;12.38;;;5.70;91.50;;;;;;5007218;28;20022;-56
2020/12/12 07:31:24;;;;;;;19.55;10.10;;;5.80;91.60;;;;;;5002638;28;20268;-57
2020/12/12 07:33:50;;;;;;;29.50;11.27;;;5.80;91.60;;;;;;4999486;28;20031;-57
2020/12/12 07:36:16;;;;;;;25.42;10.90;;;5.80;91.60;;;;;;5005990;28;20022;-56
2020/12/12 07:38:42;;;;;;;17.67;10.05;;;5.60;91.50;;;;;;4982426;28;20018;-57
2020/12/12 07:41:12;;;;;;;19.73;11.10;;;5.80;91.50;;;;;;5008578;28;20689;-58
2020/12/12 07:43:54;;;;;;;27.67;10.98;;;5.60;91.40;;;;;;4996714;28;20069;-58
2020/12/12 07:46:20;;;;;;;19.88;10.55;;;5.80;91.50;;;;;;4989443;28;20419;-56
2020/12/12 07:48:59;;;;;;;28.40;11.52;;;5.80;91.50;;;;;;5019916;28;20247;-57
2020/12/12 07:51:24;;;;;;;15.63;9.68;;;5.80;91.50;;;;;;5013588;28;20112;-56
2020/12/12 07:53:50;;;;;;;18.70;10.57;;;5.80;91.60;;;;;;5004167;28;20167;-57
2020/12/12 07:56:16;;;;;;;19.70;9.43;;;5.80;91.50;;;;;;5012520;28;20432;-57
2020/12/12 07:58:42;;;;;;;21.05;11.05;;;5.90;91.50;;;;;;4986553;28;20026;-57
2020/12/12 08:01:08;;;;;;;18.08;10.55;;;5.90;91.50;;;;;;5005836;28;20417;-57
2020/12/12 08:03:34;;;;;;;22.63;10.93;;;5.90;91.50;;;;;;5007877;28;20026;-56
2020/12/12 08:06:06;;;;;;;25.35;11.02;;;5.90;91.50;;;;;;4989377;28;20085;-56
2020/12/12 08:08:32;;;;;;;17.98;9.57;;;5.90;91.50;;;;;;5015068;28;20026;-56
2020/12/12 08:11:01;;;;;;;15.48;8.80;;;5.90;91.80;;;;;;5004622;28;20046;-56
2020/12/12 08:13:30;;;;;;;21.40;9.77;;;5.90;91.60;;;;;;4987259;28;20083;-57
2020/12/12 08:18:39;;;;;;;26.63;9.05;;;6.00;91.80;;;;;;5022209;28;20110;-57
2020/12/12 08:21:15;;;;;;;28.40;7.75;;;5.90;91.90;;;;;;5018526;28;20124;-57
2020/12/12 08:23:41;;;;;;;18.73;7.32;;;6.00;92.00;;;;;;5005737;28;20026;-57
2020/12/12 08:26:07;;;;;;;24.08;7.85;;;6.00;92.10;;;;;;5005731;28;20394;-57
2020/12/12 08:28:33;;;;;;;15.77;7.53;;;6.00;92.10;;;;;;5021081;28;20018;-56
2020/12/12 08:31:12;;;;;;;12.13;7.03;;;6.00;92.20;;;;;;5008727;28;20413;-57
2020/12/12 08:33:38;;;;;;;13.10;7.00;;;6.10;92.40;;;;;;4991437;28;20029;-57
2020/12/12 08:36:17;;;;;;;20.67;6.68;;;6.10;92.30;;;;;;4992584;28;20657;-56
2020/12/12 08:38:50;;;;;;;16.65;6.82;;;6.10;92.10;;;;;;5006646;28;20120;-57
2020/12/12 08:41:16;;;;;;;14.07;6.90;;;6.10;92.20;;;;;;5022418;28;20010;-57
2020/12/12 08:43:43;;;;;;;14.57;6.32;;;6.10;92.20;;;;;;5011076;28;20022;-56
2020/12/12 08:46:08;;;;;;;11.52;6.40;;;6.10;92.30;;;;;;5019000;28;20050;-56
2020/12/12 08:48:38;;;;;;;14.45;6.97;;;6.10;92.50;;;;;;4993139;28;20104;-58
2020/12/12 08:51:09;;;;;;;12.32;7.05;;;6.10;92.80;;;;;;5007761;28;20048;-56
2020/12/12 08:53:42;;;;;;;11.90;6.88;;;6.20;93.00;;;;;;4976561;28;20049;-57
2020/12/12 08:56:14;;;;;;;10.95;6.38;;;6.20;93.10;;;;;;5023076;28;20512;-56
2020/12/12 08:58:47;;;;;;;12.45;6.47;;;6.20;93.00;;;;;;4991858;28;20029;-56
2020/12/12 09:01:13;;;;;;;11.13;5.93;;;6.20;92.90;;;;;;5004489;28;20112;-56
2020/12/12 09:04:08;;;;;;;14.52;6.28;;;6.20;92.90;;;;;;5008093;28;20163;-57
2020/12/12 09:06:45;;;;;;;11.75;5.75;;;6.30;92.90;;;;;;4988920;28;20061;-57
2020/12/12 09:09:20;;;;;;;12.60;5.93;;;6.30;93.00;;;;;;5007993;28;20076;-57
2020/12/12 09:12:07;;;;;;;13.32;5.90;;;6.30;93.10;;;;;;5005853;28;20022;-57
2020/12/12 09:14:36;;;;;;;23.55;5.93;;;6.30;93.10;;;;;;5006696;28;20030;-57
2020/12/12 09:17:09;;;;;;;12.52;5.88;;;6.40;93.10;;;;;;5017483;28;20385;-57
2020/12/12 09:19:35;;;;;;;27.52;6.43;;;6.40;93.10;;;;;;5002275;28;20042;-56
2020/12/12 09:22:00;;;;;;;20.27;7.53;;;6.40;93.20;;;;;;5004176;28;20140;-56
2020/12/12 09:24:26;;;;;;;14.80;6.07;;;6.50;93.40;;;;;;4993251;28;20041;-58
2020/12/12 09:26:54;;;;;;;29.08;6.18;;;6.50;93.40;;;;;;5006012;28;20153;-57
2020/12/12 09:29:20;;;;;;;23.75;5.75;;;6.50;93.50;;;;;;4991062;28;20030;-56
2020/12/12 09:31:47;;;;;;;22.98;6.13;;;6.60;93.50;;;;;;5003165;28;20627;-58
2020/12/12 09:34:12;;;;;;;26.02;5.50;;;6.60;93.50;;;;;;5004569;28;20345;-57
2020/12/12 09:36:38;;;;;;;24.65;6.38;;;6.60;93.50;;;;;;5011261;28;20026;-57
2020/12/12 09:39:04;;;;;;;23.60;5.35;;;6.70;93.60;;;;;;5017703;28;20030;-57
2020/12/12 09:41:29;;;;;;;25.73;6.45;;;6.70;93.60;;;;;;5003081;28;20273;-56
2020/12/12 09:43:55;;;;;;;31.60;5.80;;;6.80;93.60;;;;;;5004496;28;20030;-56
2020/12/12 09:46:21;;;;;;;30.58;6.10;;;6.80;93.60;;;;;;5005218;28;21602;-56
2020/12/12 09:48:47;;;;;;;34.53;6.63;;;6.90;93.60;;;;;;4984288;28;20473;-56
2020/12/12 09:51:14;;;;;;;44.70;7.10;;;6.90;93.60;;;;;;5000143;28;20040;-57
2020/12/12 09:53:39;;;;;;;33.10;7.10;;;7.00;93.70;;;;;;5004373;28;20486;-56
2020/12/12 09:56:05;;;;;;;50.85;7.00;;;7.00;94.00;;;;;;5004845;28;20033;-57
2020/12/12 09:58:30;;;;;;;47.88;7.53;;;7.10;93.70;;;;;;5022203;28;20449;-57
2020/12/12 10:00:56;;;;;;;60.88;6.97;;;7.10;93.60;;;;;;4989160;28;20038;-56
2020/12/12 10:03:22;;;;;;;63.95;7.75;;;7.20;93.70;;;;;;4979915;28;20120;-56
2020/12/12 10:05:48;;;;;;;54.42;8.27;;;7.20;93.60;;;;;;4986595;28;20145;-57
2020/12/12 10:08:13;;;;;;;51.97;8.10;;;7.30;93.50;;;;;;5008742;28;20125;-57
2020/12/12 10:10:39;;;;;;;46.75;8.77;;;7.30;93.50;;;;;;5007033;28;20018;-56
2020/12/12 10:13:04;;;;;;;63.00;9.85;;;7.40;93.60;;;;;;5002937;28;20038;-59
2020/12/12 10:15:30;;;;;;;64.55;7.93;;;7.40;93.50;;;;;;5002326;28;20042;-56
2020/12/12 10:17:55;;;;;;;55.88;7.47;;;7.50;93.50;;;;;;4998660;28;20030;-57
2020/12/12 10:20:22;;;;;;;54.42;9.80;;;7.60;93.50;;;;;;5004441;28;20040;-56
2020/12/12 10:22:47;;;;;;;57.10;8.55;;;7.60;93.50;;;;;;5004684;28;20018;-57
2020/12/12 10:25:13;;;;;;;70.72;9.68;;;7.70;93.50;;;;;;5002979;28;20389;-56
2020/12/12 10:27:39;;;;;;;81.50;8.85;;;7.70;93.40;;;;;;5025312;28;20108;-56
2020/12/12 10:30:06;;;;;;;73.25;9.65;;;7.70;93.30;;;;;;5003404;28;20044;-57
2020/12/12 10:32:32;;;;;;;76.70;9.25;;;7.70;93.10;;;;;;5005076;28;20437;-57
2020/12/12 10:34:57;;;;;;;81.78;9.48;;;7.80;93.10;;;;;;5006094;28;20026;-57
2020/12/12 10:37:23;;;;;;;66.65;9.23;;;7.80;93.00;;;;;;5001549;28;20050;-57
2020/12/12 10:39:54;;;;;;;75.15;10.88;;;7.80;93.00;;;;;;5005300;28;20561;-56
2020/12/12 10:42:19;;;;;;;80.90;10.52;;;7.90;93.00;;;;;;5006387;28;20035;-56
2020/12/12 10:44:45;;;;;;;80.38;9.35;;;7.90;93.00;;;;;;5006959;28;20037;-57
2020/12/12 10:47:11;;;;;;;114.60;12.77;;;7.90;92.90;;;;;;5006929;28;20045;-57
2020/12/12 10:49:36;;;;;;;61.63;9.23;;;8.00;92.90;;;;;;4993382;28;20061;-56
2020/12/12 10:52:02;;;;;;;65.32;9.82;;;8.00;92.90;;;;;;5018517;28;20045;-56
2020/12/12 10:54:28;;;;;;;64.78;8.82;;;8.00;92.90;;;;;;5005647;28;20386;-57
2020/12/12 10:56:53;;;;;;;69.43;9.40;;;8.10;93.00;;;;;;5004594;28;20211;-56
2020/12/12 10:59:19;;;;;;;69.50;9.77;;;8.10;92.90;;;;;;5019271;28;20560;-57
2020/12/12 11:01:44;;;;;;;93.72;12.77;;;8.10;92.80;;;;;;5001162;28;20053;-56
2020/12/12 11:04:10;;;;;;;80.07;11.40;;;8.20;92.80;;;;;;5000602;28;20046;-56
2020/12/12 11:06:35;;;;;;;83.65;10.75;;;8.20;92.70;;;;;;5002849;28;20077;-57
2020/12/12 11:09:01;;;;;;;66.82;9.52;;;8.20;92.70;;;;;;5005107;28;20162;-56
2020/12/12 11:11:27;;;;;;;91.65;10.90;;;8.30;92.60;;;;;;4987773;28;20426;-57
2020/12/12 11:13:53;;;;;;;96.55;9.55;;;8.30;92.60;;;;;;5010889;28;20381;-57
2020/12/12 11:16:21;;;;;;;45.08;7.75;;;8.30;92.70;;;;;;5003984;28;20536;-56
2020/12/12 11:18:52;;;;;;;59.55;7.50;;;8.30;92.40;;;;;;5028841;28;20057;-57
2020/12/12 11:21:21;;;;;;;45.05;6.43;;;8.30;92.40;;;;;;4992174;28;20121;-56
2020/12/12 11:23:46;;;;;;;45.88;8.18;;;8.30;92.40;;;;;;5025633;28;20041;-56
2020/12/12 11:26:12;;;;;;;65.88;8.15;;;8.30;92.30;;;;;;4991401;28;20458;-57
2020/12/12 11:28:39;;;;;;;76.95;8.70;;;8.40;92.30;;;;;;5003699;28;20485;-57
2020/12/12 11:31:05;;;;;;;70.93;8.73;;;8.40;92.40;;;;;;5002633;28;20034;-57
2020/12/12 11:33:31;;;;;;;71.43;9.77;;;8.40;92.50;;;;;;5008718;28;20092;-57
2020/12/12 11:36:28;;;;;;;74.85;8.90;;;8.40;92.40;;;;;;5023102;28;20026;-56
2020/12/12 11:39:02;;;;;;;64.72;9.65;;;8.40;92.50;;;;;;5010465;28;20029;-56
2020/12/12 11:41:46;;;;;;;101.15;9.88;;;8.40;92.50;;;;;;5009628;28;20516;-57
2020/12/12 11:46:55;;;;;;;52.55;8.63;;;8.50;92.40;;;;;;5008598;28;20466;-57
2020/12/12 11:49:22;;;;;;;71.32;8.95;;;8.50;92.30;;;;;;5011930;28;20143;-56
2020/12/12 11:51:48;;;;;;;58.65;8.88;;;8.50;92.30;;;;;;5011160;28;20520;-57
2020/12/12 11:54:13;;;;;;;47.70;7.55;;;8.50;92.30;;;;;;5004527;28;20039;-57
2020/12/12 11:56:39;;;;;;;53.42;8.05;;;8.50;92.30;;;;;;5020564;28;20069;-58
2020/12/12 11:59:04;;;;;;;66.22;8.02;;;8.50;92.20;;;;;;5006355;28;20037;-56
2020/12/12 12:01:30;;;;;;;58.08;8.02;;;8.60;92.20;;;;;;5023474;28;20105;-57
2020/12/12 12:03:56;;;;;;;56.85;7.72;;;8.50;92.20;;;;;;5005593;28;20045;-56
2020/12/12 12:06:22;;;;;;;83.03;9.77;;;8.60;92.10;;;;;;5020810;28;20128;-57
2020/12/12 12:09:01;;;;;;;68.68;8.73;;;8.60;92.10;;;;;;4992177;28;20084;-56
2020/12/12 12:11:31;;;;;;;38.67;6.88;;;8.60;92.20;;;;;;5008141;28;20038;-56
2020/12/12 12:13:57;;;;;;;50.80;7.25;;;8.60;92.10;;;;;;4994143;28;20105;-58
2020/12/12 12:16:23;;;;;;;48.92;7.30;;;8.50;92.10;;;;;;5006308;28;20201;-57
2020/12/12 12:18:49;;;;;;;36.25;7.07;;;8.60;92.10;;;;;;5009158;28;20041;-56
2020/12/12 12:21:14;;;;;;;38.88;6.90;;;8.60;92.10;;;;;;5005416;28;20022;-57
2020/12/12 12:23:40;;;;;;;48.97;5.95;;;8.60;92.20;;;;;;5006297;28;20073;-57
2020/12/12 12:26:05;;;;;;;44.00;6.05;;;8.60;92.20;;;;;;5005475;28;20036;-57
2020/12/12 12:28:31;;;;;;;38.85;5.38;;;8.60;92.20;;;;;;5022782;28;20108;-56
2020/12/12 12:30:56;;;;;;;31.70;7.00;;;8.60;92.20;;;;;;5007121;28;20034;-56
2020/12/12 12:33:22;;;;;;;37.95;6.13;;;8.60;92.20;;;;;;5019102;28;20022;-57
2020/12/12 12:35:48;;;;;;;49.78;6.95;;;8.60;92.20;;;;;;5006274;28;20132;-57
2020/12/12 12:38:13;;;;;;;39.50;6.40;;;8.60;92.20;;;;;;5003107;28;20030;-57
2020/12/12 12:40:42;;;;;;;41.70;6.38;;;8.60;92.20;;;;;;5007125;28;20121;-57
2020/12/12 12:43:07;;;;;;;48.47;6.70;;;8.60;92.20;;;;;;5012546;28;20038;-57
2020/12/12 12:45:33;;;;;;;34.40;6.18;;;8.70;92.30;;;;;;5007252;28;20041;-57
2020/12/12 12:47:58;;;;;;;51.72;7.30;;;8.70;92.30;;;;;;5018083;28;20025;-57